sensor_id;sensor_type;location;lat;lon;timestamp;pressure;altitude;pressure_sealevel;temperature;humidity
9444;BME280;4760;42.148;24.754;2022-07-05T00:01:09;99641.09;;;22.43;81.25
9444;BME280;4760;42.148;24.754;2022-07-05T00:11:23;99646.06;;;22.39;84.06
9444;BME280;4760;42.148;24.754;2022-07-05T00:21:36;99654.19;;;22.37;83.89
9444;BME280;4760;42.148;24.754;2022-07-05T00:31:25;99640.00;;;22.41;82.81
9444;BME280;4760;42.148;24.754;2022-07-05T00:41:17;99619.38;;;22.35;84.33
9444;BME280;4760;42.148;24.754;2022-07-05T00:51:07;99616.81;;;22.28;85.54
9444;BME280;4760;42.148;24.754;2022-07-05T01:01:22;99604.03;;;22.05;86.67
9444;BME280;4760;42.148;24.754;2022-07-05T01:26:19;99577.09;;;22.16;88.86
9444;BME280;4760;42.148;24.754;2022-07-05T01:36:33;99586.63;;;22.19;91.52
9444;BME280;4760;42.148;24.754;2022-07-05T01:46:26;99583.00;;;22.09;93.92
9444;BME280;4760;42.148;24.754;2022-07-05T01:56:19;99592.06;;;22.13;91.19
9444;BME280;4760;42.148;24.754;2022-07-05T02:06:09;99587.25;;;22.14;91.30
9444;BME280;4760;42.148;24.754;2022-07-05T02:16:24;99611.44;;;21.99;94.52
9444;BME280;4760;42.148;24.754;2022-07-05T02:26:14;99611.94;;;21.97;90.98
9444;BME280;4760;42.148;24.754;2022-07-05T02:36:08;99610.41;;;21.71;91.10
9444;BME280;4760;42.148;24.754;2022-07-05T02:45:58;99613.69;;;21.57;89.84
9444;BME280;4760;42.148;24.754;2022-07-05T02:55:47;99622.47;;;21.59;89.82
9444;BME280;4760;42.148;24.754;2022-07-05T03:13:24;99636.06;;;21.60;91.85
9444;BME280;4760;42.148;24.754;2022-07-05T03:23:14;99640.53;;;21.58;94.20
9444;BME280;4760;42.148;24.754;2022-07-05T03:33:29;99624.53;;;21.93;94.27
9444;BME280;4760;42.148;24.754;2022-07-05T03:57:38;99625.91;;;29.76;52.39
9444;BME280;4760;42.148;24.754;2022-07-05T04:07:27;99631.66;;;32.51;43.15
9444;BME280;4760;42.148;24.754;2022-07-05T04:17:18;99626.44;;;33.93;37.93
9444;BME280;4760;42.148;24.754;2022-07-05T04:27:05;99617.13;;;35.39;35.15
9444;BME280;4760;42.148;24.754;2022-07-05T04:37:20;99624.91;;;39.08;29.19
9444;BME280;4760;42.148;24.754;2022-07-05T04:47:08;99637.75;;;41.20;25.11
9444;BME280;4760;42.148;24.754;2022-07-05T04:56:56;99647.38;;;43.13;23.97
9444;BME280;4760;42.148;24.754;2022-07-05T05:06:44;99645.50;;;43.54;23.23
9444;BME280;4760;42.148;24.754;2022-07-05T05:16:33;99675.16;;;43.72;21.62
9444;BME280;4760;42.148;24.754;2022-07-05T05:23:05;99675.06;;;44.27;20.43
9444;BME280;4760;42.148;24.754;2022-07-05T05:33:20;99679.94;;;44.25;22.23
9444;BME280;4760;42.148;24.754;2022-07-05T05:43:10;99676.69;;;44.69;21.34
9444;BME280;4760;42.148;24.754;2022-07-05T05:53:00;99681.06;;;45.82;20.58
9444;BME280;4760;42.148;24.754;2022-07-05T06:02:50;99692.81;;;47.62;18.73
9444;BME280;4760;42.148;24.754;2022-07-05T06:12:39;99685.84;;;48.04;18.64
9444;BME280;4760;42.148;24.754;2022-07-05T06:22:27;99678.88;;;48.34;18.06
9444;BME280;4760;42.148;24.754;2022-07-05T06:32:17;99661.66;;;49.18;18.31
9444;BME280;4760;42.148;24.754;2022-07-05T06:42:31;99661.00;;;49.33;17.76
9444;BME280;4760;42.148;24.754;2022-07-05T06:52:20;99649.19;;;44.41;20.87
9444;BME280;4760;42.148;24.754;2022-07-05T07:02:10;99613.69;;;40.28;24.81
9444;BME280;4760;42.148;24.754;2022-07-05T07:19:14;99599.91;;;36.93;27.56
9444;BME280;4760;42.148;24.754;2022-07-05T07:29:03;99581.41;;;36.26;28.83
9444;BME280;4760;42.148;24.754;2022-07-05T08:04:17;99592.38;;;33.46;34.04
9444;BME280;4760;42.148;24.754;2022-07-05T08:14:05;99600.91;;;33.76;35.42
9444;BME280;4760;42.148;24.754;2022-07-05T08:24:20;99594.03;;;33.61;34.01
9444;BME280;4760;42.148;24.754;2022-07-05T08:34:34;99589.84;;;33.62;35.86
9444;BME280;4760;42.148;24.754;2022-07-05T08:44:24;99585.13;;;33.21;31.39
9444;BME280;4760;42.148;24.754;2022-07-05T08:54:13;99561.75;;;33.23;31.18
9444;BME280;4760;42.148;24.754;2022-07-05T09:08:09;99551.16;;;33.12;34.69
9444;BME280;4760;42.148;24.754;2022-07-05T09:18:43;99544.44;;;33.10;33.87
9444;BME280;4760;42.148;24.754;2022-07-05T09:28:32;99541.47;;;32.37;34.73
9444;BME280;4760;42.148;24.754;2022-07-05T09:38:21;99524.31;;;32.96;32.53
9444;BME280;4760;42.148;24.754;2022-07-05T09:48:11;99525.31;;;32.99;33.21
9444;BME280;4760;42.148;24.754;2022-07-05T10:02:04;99508.22;;;33.23;32.38
9444;BME280;4760;42.148;24.754;2022-07-05T10:12:20;99492.06;;;33.26;35.04
9444;BME280;4760;42.148;24.754;2022-07-05T10:22:37;99494.78;;;33.37;32.48
9444;BME280;4760;42.148;24.754;2022-07-05T10:32:28;99489.69;;;33.30;33.16
9444;BME280;4760;42.148;24.754;2022-07-05T10:42:17;99466.09;;;33.24;34.05
9444;BME280;4760;42.148;24.754;2022-07-05T11:06:40;99455.09;;;33.52;32.27
9444;BME280;4760;42.148;24.754;2022-07-05T11:16:33;99433.84;;;33.47;34.05
9444;BME280;4760;42.148;24.754;2022-07-05T11:26:23;99427.22;;;33.39;34.72
9444;BME280;4760;42.148;24.754;2022-07-05T11:36:39;99417.63;;;33.18;35.86
9444;BME280;4760;42.148;24.754;2022-07-05T11:46:32;99395.84;;;33.34;36.29
9444;BME280;4760;42.148;24.754;2022-07-05T11:56:23;99386.94;;;33.37;36.68
9444;BME280;4760;42.148;24.754;2022-07-05T12:10:16;99382.09;;;33.51;37.42
9444;BME280;4760;42.148;24.754;2022-07-05T12:20:24;99386.47;;;33.71;36.06
9444;BME280;4760;42.148;24.754;2022-07-05T12:30:14;99376.91;;;34.00;36.07
9444;BME280;4760;42.148;24.754;2022-07-05T12:40:06;99372.72;;;34.01;35.25
9444;BME280;4760;42.148;24.754;2022-07-05T12:50:20;99364.78;;;33.43;36.68
9444;BME280;4760;42.148;24.754;2022-07-05T13:00:33;99357.06;;;33.38;37.66
9444;BME280;4760;42.148;24.754;2022-07-05T13:10:24;99338.72;;;33.66;37.74
9444;BME280;4760;42.148;24.754;2022-07-05T13:20:15;99316.75;;;33.74;37.18
9444;BME280;4760;42.148;24.754;2022-07-05T13:34:10;99314.16;;;33.89;38.83
9444;BME280;4760;42.148;24.754;2022-07-05T13:44:25;99300.97;;;33.99;37.71
9444;BME280;4760;42.148;24.754;2022-07-05T13:54:13;99292.28;;;34.05;36.82
9444;BME280;4760;42.148;24.754;2022-07-05T14:04:07;99273.03;;;34.05;38.28
9444;BME280;4760;42.148;24.754;2022-07-05T14:32:21;99246.47;;;33.78;38.53
9444;BME280;4760;42.148;24.754;2022-07-05T14:42:34;99246.59;;;33.73;36.58
9444;BME280;4760;42.148;24.754;2022-07-05T14:52:23;99249.56;;;33.17;36.12
9444;BME280;4760;42.148;24.754;2022-07-05T15:02:12;99248.28;;;33.18;37.51
9444;BME280;4760;42.148;24.754;2022-07-05T15:19:24;99227.75;;;33.19;37.13
9444;BME280;4760;42.148;24.754;2022-07-05T15:29:37;99245.19;;;33.47;35.60
9444;BME280;4760;42.148;24.754;2022-07-05T15:39:28;99249.31;;;33.65;35.77
9444;BME280;4760;42.148;24.754;2022-07-05T15:49:15;99237.91;;;33.78;34.43
9444;BME280;4760;42.148;24.754;2022-07-05T15:59:05;99245.72;;;33.46;34.46
9444;BME280;4760;42.148;24.754;2022-07-05T16:09:18;99225.00;;;33.08;35.23
9444;BME280;4760;42.148;24.754;2022-07-05T16:23:15;99236.22;;;32.87;34.77
9444;BME280;4760;42.148;24.754;2022-07-05T16:33:27;99230.00;;;32.70;35.53
9444;BME280;4760;42.148;24.754;2022-07-05T16:43:18;99216.16;;;32.55;36.73
9444;BME280;4760;42.148;24.754;2022-07-05T16:53:30;99221.41;;;32.51;35.66
9444;BME280;4760;42.148;24.754;2022-07-05T17:11:13;99223.72;;;32.10;36.33
9444;BME280;4760;42.148;24.754;2022-07-05T17:35:22;99224.63;;;31.75;38.32
9444;BME280;4760;42.148;24.754;2022-07-05T17:45:10;99221.97;;;31.47;39.76
9444;BME280;4760;42.148;24.754;2022-07-05T17:55:25;99209.53;;;31.20;40.28
9444;BME280;4760;42.148;24.754;2022-07-05T18:05:38;99209.25;;;30.89;42.74
9444;BME280;4760;42.148;24.754;2022-07-05T18:15:27;99213.50;;;30.65;44.17
9444;BME280;4760;42.148;24.754;2022-07-05T18:29:23;99223.84;;;30.68;42.43
9444;BME280;4760;42.148;24.754;2022-07-05T18:39:12;99246.72;;;30.41;44.48
9444;BME280;4760;42.148;24.754;2022-07-05T18:49:04;99249.13;;;30.20;46.32
9444;BME280;4760;42.148;24.754;2022-07-05T18:59:18;99265.47;;;29.75;50.09
9444;BME280;4760;42.148;24.754;2022-07-05T19:09:30;99265.25;;;29.62;52.53
9444;BME280;4760;42.148;24.754;2022-07-05T19:19:36;99266.22;;;29.09;57.28
9444;BME280;4760;42.148;24.754;2022-07-05T19:29:24;99273.81;;;28.64;62.67
9444;BME280;4760;42.148;24.754;2022-07-05T19:39:14;99283.16;;;28.16;64.27
9444;BME280;4760;42.148;24.754;2022-07-05T19:52:45;99280.19;;;27.62;64.07
9444;BME280;4760;42.148;24.754;2022-07-05T20:02:33;99272.22;;;27.35;63.35
9444;BME280;4760;42.148;24.754;2022-07-05T20:12:21;99297.09;;;27.00;66.91
9444;BME280;4760;42.148;24.754;2022-07-05T20:22:10;99299.91;;;26.54;70.58
9444;BME280;4760;42.148;24.754;2022-07-05T20:36:04;99317.28;;;26.12;71.95
9444;BME280;4760;42.148;24.754;2022-07-05T20:46:18;99309.66;;;25.83;70.44
9444;BME280;4760;42.148;24.754;2022-07-05T20:56:30;99311.75;;;25.53;72.67
9444;BME280;4760;42.148;24.754;2022-07-05T21:06:19;99310.63;;;25.36;73.79
9444;BME280;4760;42.148;24.754;2022-07-05T21:16:09;99306.84;;;25.24;74.24
9444;BME280;4760;42.148;24.754;2022-07-05T21:26:22;99298.78;;;25.17;75.02
9444;BME280;4760;42.148;24.754;2022-07-05T21:40:17;99303.03;;;24.98;75.04
9444;BME280;4760;42.148;24.754;2022-07-05T22:00:49;99301.97;;;24.72;75.88
9444;BME280;4760;42.148;24.754;2022-07-05T22:07:15;99325.31;;;24.72;76.15
9444;BME280;4760;42.148;24.754;2022-07-05T22:17:28;99334.06;;;24.74;77.30
9444;BME280;4760;42.148;24.754;2022-07-05T22:27:18;99310.72;;;24.35;79.00
9444;BME280;4760;42.148;24.754;2022-07-05T22:37:06;99333.50;;;24.47;80.31
9444;BME280;4760;42.148;24.754;2022-07-05T23:01:04;99344.75;;;24.23;81.33
9444;BME280;4760;42.148;24.754;2022-07-05T23:25:12;99385.66;;;24.00;85.26
9444;BME280;4760;42.148;24.754;2022-07-05T23:35:27;99397.88;;;24.06;85.21
9444;BME280;4760;42.148;24.754;2022-07-05T23:45:17;99406.06;;;23.95;85.58
9444;BME280;4760;42.148;24.754;2022-07-05T23:55:07;99419.72;;;24.20;80.12
